EZS17GH LFBD-LSGG
Flight info
| Callsign | EZS17GH |
|---|---|
| Flight time | 1h 4m |
| Altitude | 33000 |
| Route | OBLOC DCT SECHE DCT NARAK/N0427F340 DCT DITEV DCT MEN DCT NINUN DCT LATAM DCT ETREK/N0417F300 DCT LUXAN G53 LTP Z16 BELUS |
| Aircraft | A320/M-SDE3FGHIRWY/LB1 |
Departure
| Time | 2026-05-04 18:05 |
|---|---|
| Airport | Bordeaux–Mérignac Airport (LFBD) |
Arrival
| Time | 2026-05-04 19:09 |
|---|---|
| Airport | Geneva International Airport (LSGG) |
| Time | Latitude | Longitude | Altitude | Speed | Heading |
|---|---|---|---|---|---|
| 2026-05-04 17:43 | 44.82872 | -0.70027 | 163 ft | 0 kts | 15° |
| 2026-05-04 17:55 | 44.82868 | -0.70029 | 162 ft | 3 kts | 15° |
| 2026-05-04 17:55 | 44.82843 | -0.70039 | 161 ft | 3 kts | 15° |
| 2026-05-04 17:56 | 44.82823 | -0.70043 | 161 ft | 4 kts | 331° |
| 2026-05-04 17:56 | 44.82810 | -0.70017 | 161 ft | 4 kts | 283° |
| 2026-05-04 17:56 | 44.82807 | -0.69998 | 161 ft | 0 kts | 286° |
| 2026-05-04 17:58 | 44.82808 | -0.70003 | 161 ft | 3 kts | 286° |
| 2026-05-04 17:59 | 44.82816 | -0.70040 | 161 ft | 4 kts | 286° |
| 2026-05-04 17:59 | 44.82825 | -0.70083 | 161 ft | 4 kts | 286° |
| 2026-05-04 17:59 | 44.82838 | -0.70153 | 161 ft | 4 kts | 274° |
| 2026-05-04 18:00 | 44.82805 | -0.70182 | 160 ft | 6 kts | 197° |
| 2026-05-04 18:00 | 44.82797 | -0.70228 | 160 ft | 9 kts | 288° |
| 2026-05-04 18:00 | 44.82824 | -0.70375 | 160 ft | 17 kts | 287° |
| 2026-05-04 18:00 | 44.82860 | -0.70544 | 160 ft | 19 kts | 286° |
| 2026-05-04 18:01 | 44.82899 | -0.70728 | 161 ft | 20 kts | 287° |
| 2026-05-04 18:01 | 44.82937 | -0.70911 | 161 ft | 13 kts | 286° |
| 2026-05-04 18:01 | 44.82996 | -0.70906 | 161 ft | 11 kts | 46° |
| 2026-05-04 18:02 | 44.83121 | -0.70722 | 161 ft | 17 kts | 46° |
| 2026-05-04 18:02 | 44.83202 | -0.70604 | 161 ft | 17 kts | 45° |
| 2026-05-04 18:02 | 44.83292 | -0.70478 | 161 ft | 19 kts | 45° |
| 2026-05-04 18:02 | 44.83391 | -0.70334 | 161 ft | 21 kts | 45° |
| 2026-05-04 18:03 | 44.83499 | -0.70182 | 161 ft | 23 kts | 45° |
| 2026-05-04 18:03 | 44.83606 | -0.70028 | 161 ft | 19 kts | 45° |
| 2026-05-04 18:03 | 44.83727 | -0.70046 | 157 ft | 21 kts | 336° |
| 2026-05-04 18:03 | 44.83833 | -0.70114 | 161 ft | 10 kts | 323° |
| 2026-05-04 18:04 | 44.83809 | -0.70184 | 160 ft | 9 kts | 226° |
| 2026-05-04 18:04 | 44.83677 | -0.70376 | 158 ft | 62 kts | 226° |
| 2026-05-04 18:04 | 44.82488 | -0.72066 | 433 ft | 152 kts | 230° |
| 2026-05-04 18:05 | 44.81746 | -0.73128 | 1179 ft | 151 kts | 233° |
| 2026-05-04 18:05 | 44.81009 | -0.74180 | 1904 ft | 150 kts | 231° |
| 2026-05-04 18:05 | 44.80284 | -0.75200 | 2569 ft | 148 kts | 232° |
| 2026-05-04 18:05 | 44.79563 | -0.76231 | 3215 ft | 147 kts | 232° |
| 2026-05-04 18:06 | 44.77991 | -0.78502 | 4006 ft | 183 kts | 229° |
| 2026-05-04 18:06 | 44.76942 | -0.79707 | 4338 ft | 208 kts | 213° |
| 2026-05-04 18:06 | 44.75504 | -0.80489 | 4673 ft | 237 kts | 192° |
| 2026-05-04 18:07 | 44.74375 | -0.80611 | 4966 ft | 255 kts | 178° |
| 2026-05-04 18:07 | 44.72582 | -0.79991 | 5497 ft | 277 kts | 154° |
| 2026-05-04 18:07 | 44.71035 | -0.78332 | 6364 ft | 285 kts | 130° |
| 2026-05-04 18:07 | 44.70078 | -0.75888 | 7240 ft | 289 kts | 107° |
| 2026-05-04 18:08 | 44.69728 | -0.73090 | 8173 ft | 293 kts | 94° |
| 2026-05-04 18:08 | 44.69630 | -0.70210 | 9110 ft | 296 kts | 94° |
| 2026-05-04 18:08 | 44.69527 | -0.67315 | 10054 ft | 298 kts | 94° |
| 2026-05-04 18:08 | 44.69420 | -0.64311 | 10499 ft | 319 kts | 95° |
| 2026-05-04 18:09 | 44.69191 | -0.57739 | 11588 ft | 345 kts | 95° |
| 2026-05-04 18:09 | 44.68962 | -0.50951 | 13149 ft | 354 kts | 95° |
| 2026-05-04 18:10 | 44.68844 | -0.47465 | 13890 ft | 359 kts | 95° |
| 2026-05-04 18:10 | 44.68721 | -0.43941 | 14576 ft | 362 kts | 96° |
| 2026-05-04 18:10 | 44.68595 | -0.40390 | 15276 ft | 365 kts | 96° |
| 2026-05-04 18:10 | 44.68467 | -0.36818 | 15979 ft | 368 kts | 96° |
| 2026-05-04 18:11 | 44.68338 | -0.33195 | 16693 ft | 371 kts | 96° |
| 2026-05-04 18:11 | 44.68207 | -0.29560 | 17393 ft | 374 kts | 97° |
| 2026-05-04 18:11 | 44.68075 | -0.25934 | 18058 ft | 377 kts | 97° |
| 2026-05-04 18:11 | 44.67936 | -0.22236 | 18677 ft | 380 kts | 97° |
| 2026-05-04 18:12 | 44.67777 | -0.18513 | 19278 ft | 381 kts | 100° |
| 2026-05-04 18:12 | 44.67279 | -0.14872 | 19879 ft | 378 kts | 111° |
| 2026-05-04 18:12 | 44.66330 | -0.11435 | 20490 ft | 375 kts | 120° |
| 2026-05-04 18:12 | 44.65174 | -0.08187 | 21070 ft | 377 kts | 121° |
| 2026-05-04 18:13 | 44.63999 | -0.04880 | 21660 ft | 379 kts | 121° |
| 2026-05-04 18:13 | 44.62823 | -0.01561 | 22241 ft | 381 kts | 121° |
| 2026-05-04 18:13 | 44.60463 | 0.05131 | 23340 ft | 385 kts | 121° |
| 2026-05-04 18:14 | 44.59266 | 0.08513 | 23827 ft | 388 kts | 121° |
| 2026-05-04 18:14 | 44.58057 | 0.11910 | 24285 ft | 390 kts | 121° |
| 2026-05-04 18:14 | 44.56834 | 0.15331 | 24756 ft | 393 kts | 121° |
| 2026-05-04 18:15 | 44.54373 | 0.22213 | 25645 ft | 397 kts | 121° |
| 2026-05-04 18:15 | 44.51884 | 0.29189 | 26481 ft | 402 kts | 122° |
| 2026-05-04 18:15 | 44.50629 | 0.32705 | 26896 ft | 405 kts | 122° |
| 2026-05-04 18:16 | 44.49376 | 0.36202 | 27298 ft | 407 kts | 122° |
| 2026-05-04 18:16 | 44.48100 | 0.39757 | 27668 ft | 409 kts | 122° |
| 2026-05-04 18:16 | 44.46819 | 0.43312 | 28086 ft | 411 kts | 122° |
| 2026-05-04 18:17 | 44.44321 | 0.50575 | 28881 ft | 420 kts | 115° |
| 2026-05-04 18:17 | 44.43530 | 0.54553 | 29276 ft | 430 kts | 106° |
| 2026-05-04 18:17 | 44.42603 | 0.62888 | 30007 ft | 435 kts | 105° |
| 2026-05-04 18:18 | 44.42134 | 0.67088 | 30292 ft | 438 kts | 105° |
| 2026-05-04 18:18 | 44.41661 | 0.71312 | 30555 ft | 440 kts | 105° |
| 2026-05-04 18:18 | 44.41184 | 0.75558 | 30821 ft | 443 kts | 105° |
| 2026-05-04 18:18 | 44.40704 | 0.79820 | 31093 ft | 444 kts | 105° |
| 2026-05-04 18:19 | 44.39726 | 0.88390 | 31722 ft | 447 kts | 105° |
| 2026-05-04 18:19 | 44.39241 | 0.92621 | 32073 ft | 447 kts | 105° |
| 2026-05-04 18:19 | 44.38750 | 0.96907 | 32415 ft | 447 kts | 105° |
| 2026-05-04 18:20 | 44.38257 | 1.01198 | 32757 ft | 447 kts | 105° |
| 2026-05-04 18:20 | 44.37761 | 1.05492 | 32929 ft | 446 kts | 105° |
| 2026-05-04 18:20 | 44.36797 | 1.13884 | 32950 ft | 432 kts | 105° |
| 2026-05-04 18:21 | 44.35840 | 1.22124 | 32950 ft | 428 kts | 106° |
| 2026-05-04 18:21 | 44.34877 | 1.30328 | 32950 ft | 427 kts | 106° |
| 2026-05-04 18:22 | 44.33914 | 1.38457 | 32950 ft | 427 kts | 106° |
| 2026-05-04 18:22 | 44.32936 | 1.46636 | 32947 ft | 426 kts | 106° |
| 2026-05-04 18:23 | 44.31954 | 1.54803 | 32908 ft | 426 kts | 106° |
| 2026-05-04 18:23 | 44.30976 | 1.62971 | 32918 ft | 426 kts | 106° |
| 2026-05-04 18:24 | 44.30010 | 1.71144 | 32920 ft | 429 kts | 102° |
| 2026-05-04 18:24 | 44.30294 | 1.79515 | 32924 ft | 444 kts | 83° |
| 2026-05-04 18:25 | 44.31741 | 1.87998 | 33272 ft | 452 kts | 82° |
| 2026-05-04 18:25 | 44.32460 | 1.92270 | 33601 ft | 453 kts | 82° |
| 2026-05-04 18:25 | 44.33178 | 1.96563 | 33902 ft | 454 kts | 82° |
| 2026-05-04 18:26 | 44.34608 | 2.05172 | 33942 ft | 454 kts | 83° |
| 2026-05-04 18:26 | 44.36028 | 2.13773 | 33944 ft | 454 kts | 83° |
| 2026-05-04 18:27 | 44.37445 | 2.22383 | 33945 ft | 454 kts | 83° |
| 2026-05-04 18:27 | 44.38855 | 2.30966 | 33936 ft | 455 kts | 83° |
| 2026-05-04 18:28 | 44.40270 | 2.39656 | 33955 ft | 459 kts | 83° |
| 2026-05-04 18:28 | 44.41677 | 2.48325 | 33947 ft | 459 kts | 83° |
| 2026-05-04 18:29 | 44.43082 | 2.57041 | 33943 ft | 459 kts | 83° |
| 2026-05-04 18:29 | 44.44478 | 2.65758 | 33939 ft | 459 kts | 83° |
| 2026-05-04 18:30 | 44.46573 | 2.78886 | 33920 ft | 461 kts | 83° |
| 2026-05-04 18:31 | 44.48063 | 2.87588 | 33927 ft | 466 kts | 76° |
| 2026-05-04 18:31 | 44.51007 | 2.95757 | 33937 ft | 476 kts | 59° |
| 2026-05-04 18:32 | 44.54621 | 3.03236 | 33934 ft | 476 kts | 59° |
| 2026-05-04 18:32 | 44.58298 | 3.10901 | 33949 ft | 478 kts | 59° |
| 2026-05-04 18:33 | 44.61961 | 3.18699 | 33943 ft | 478 kts | 62° |
| 2026-05-04 18:33 | 44.65277 | 3.26786 | 33949 ft | 477 kts | 65° |
| 2026-05-04 18:34 | 44.68411 | 3.34991 | 33955 ft | 477 kts | 65° |
| 2026-05-04 18:34 | 44.71603 | 3.43178 | 33959 ft | 477 kts | 64° |
| 2026-05-04 18:35 | 44.74832 | 3.51260 | 33963 ft | 477 kts | 64° |
| 2026-05-04 18:35 | 44.78084 | 3.59384 | 33958 ft | 476 kts | 64° |
| 2026-05-04 18:36 | 44.81329 | 3.67539 | 33953 ft | 476 kts | 64° |
| 2026-05-04 18:36 | 44.84552 | 3.75699 | 33953 ft | 476 kts | 65° |
| 2026-05-04 18:37 | 44.87766 | 3.83882 | 33934 ft | 476 kts | 64° |
| 2026-05-04 18:37 | 44.90955 | 3.92008 | 33946 ft | 477 kts | 64° |
| 2026-05-04 18:38 | 44.94169 | 4.00197 | 33977 ft | 477 kts | 64° |
| 2026-05-04 18:38 | 44.97377 | 4.08405 | 33975 ft | 478 kts | 64° |
| 2026-05-04 18:39 | 45.00573 | 4.16633 | 33983 ft | 478 kts | 64° |
| 2026-05-04 18:39 | 45.03770 | 4.24884 | 33965 ft | 478 kts | 64° |
| 2026-05-04 18:40 | 45.06964 | 4.33128 | 33985 ft | 479 kts | 64° |
| 2026-05-04 18:40 | 45.10162 | 4.41407 | 33990 ft | 478 kts | 64° |
| 2026-05-04 18:41 | 45.13342 | 4.49694 | 33995 ft | 479 kts | 64° |
| 2026-05-04 18:41 | 45.16520 | 4.57999 | 33990 ft | 479 kts | 64° |
| 2026-05-04 18:41 | 45.18086 | 4.62102 | 33759 ft | 480 kts | 64° |
| 2026-05-04 18:42 | 45.19676 | 4.66267 | 33485 ft | 479 kts | 64° |
| 2026-05-04 18:42 | 45.21257 | 4.70402 | 33093 ft | 475 kts | 64° |
| 2026-05-04 18:42 | 45.22831 | 4.74520 | 32511 ft | 472 kts | 64° |
| 2026-05-04 18:42 | 45.24390 | 4.78607 | 31946 ft | 468 kts | 64° |
| 2026-05-04 18:43 | 45.25932 | 4.82659 | 31410 ft | 465 kts | 65° |
| 2026-05-04 18:43 | 45.27457 | 4.86674 | 30844 ft | 461 kts | 65° |
| 2026-05-04 18:43 | 45.28975 | 4.90682 | 30314 ft | 458 kts | 65° |
| 2026-05-04 18:43 | 45.30478 | 4.94664 | 29718 ft | 456 kts | 65° |
| 2026-05-04 18:44 | 45.31969 | 4.98611 | 29191 ft | 451 kts | 65° |
| 2026-05-04 18:44 | 45.32946 | 5.01200 | 28842 ft | 447 kts | 65° |
| 2026-05-04 18:44 | 45.34896 | 5.06375 | 28155 ft | 440 kts | 65° |
| 2026-05-04 18:44 | 45.36325 | 5.10185 | 27663 ft | 435 kts | 65° |
| 2026-05-04 18:45 | 45.37739 | 5.13960 | 27173 ft | 429 kts | 65° |
| 2026-05-04 18:45 | 45.39134 | 5.17685 | 26702 ft | 424 kts | 65° |
| 2026-05-04 18:45 | 45.40493 | 5.21319 | 26241 ft | 419 kts | 65° |
| 2026-05-04 18:45 | 45.41859 | 5.24969 | 25779 ft | 415 kts | 65° |
| 2026-05-04 18:46 | 45.43206 | 5.28577 | 25335 ft | 410 kts | 65° |
| 2026-05-04 18:46 | 45.44535 | 5.32151 | 24900 ft | 406 kts | 65° |
| 2026-05-04 18:46 | 45.45854 | 5.35694 | 24429 ft | 403 kts | 65° |
| 2026-05-04 18:46 | 45.47177 | 5.39195 | 23993 ft | 400 kts | 61° |
| 2026-05-04 18:47 | 45.48795 | 5.42415 | 23518 ft | 400 kts | 50° |
| 2026-05-04 18:47 | 45.50786 | 5.45162 | 22998 ft | 398 kts | 39° |
| 2026-05-04 18:47 | 45.53034 | 5.47333 | 22552 ft | 394 kts | 30° |
| 2026-05-04 18:47 | 45.55398 | 5.49287 | 22097 ft | 391 kts | 30° |
| 2026-05-04 18:48 | 45.57742 | 5.51231 | 21628 ft | 388 kts | 30° |
| 2026-05-04 18:48 | 45.60068 | 5.53164 | 21165 ft | 386 kts | 30° |
| 2026-05-04 18:48 | 45.62389 | 5.55096 | 20695 ft | 384 kts | 30° |
| 2026-05-04 18:48 | 45.64693 | 5.57020 | 20238 ft | 382 kts | 30° |
| 2026-05-04 18:49 | 45.66987 | 5.58938 | 19776 ft | 381 kts | 30° |
| 2026-05-04 18:49 | 45.69281 | 5.60832 | 19319 ft | 380 kts | 29° |
| 2026-05-04 18:49 | 45.71585 | 5.62670 | 18866 ft | 378 kts | 28° |
| 2026-05-04 18:49 | 45.73859 | 5.64448 | 18410 ft | 377 kts | 28° |
| 2026-05-04 18:50 | 45.75412 | 5.65656 | 18091 ft | 376 kts | 28° |
| 2026-05-04 18:50 | 45.76855 | 5.66776 | 17884 ft | 372 kts | 27° |
| 2026-05-04 18:50 | 45.79128 | 5.68545 | 17756 ft | 371 kts | 28° |
| 2026-05-04 18:50 | 45.81389 | 5.70322 | 17600 ft | 370 kts | 28° |
| 2026-05-04 18:51 | 45.83645 | 5.72107 | 17439 ft | 369 kts | 28° |
| 2026-05-04 18:51 | 45.85885 | 5.73891 | 17278 ft | 367 kts | 30° |
| 2026-05-04 18:51 | 45.87964 | 5.76024 | 17105 ft | 365 kts | 42° |
| 2026-05-04 18:51 | 45.89688 | 5.78667 | 16944 ft | 363 kts | 54° |
| 2026-05-04 18:52 | 45.91167 | 5.81601 | 16780 ft | 362 kts | 56° |
| 2026-05-04 18:52 | 45.92645 | 5.84531 | 16619 ft | 361 kts | 55° |
| 2026-05-04 18:52 | 45.94123 | 5.87441 | 16464 ft | 360 kts | 55° |
| 2026-05-04 18:52 | 45.95636 | 5.90243 | 16294 ft | 359 kts | 49° |
| 2026-05-04 18:53 | 45.97398 | 5.92786 | 16138 ft | 359 kts | 45° |
| 2026-05-04 18:53 | 45.99173 | 5.95317 | 15958 ft | 360 kts | 45° |
| 2026-05-04 18:53 | 46.00954 | 5.97870 | 15811 ft | 361 kts | 45° |
| 2026-05-04 18:53 | 46.02724 | 6.00422 | 15651 ft | 357 kts | 46° |
| 2026-05-04 18:54 | 46.04470 | 6.02947 | 15484 ft | 354 kts | 46° |
| 2026-05-04 18:54 | 46.06201 | 6.05456 | 15327 ft | 352 kts | 46° |
| 2026-05-04 18:54 | 46.07926 | 6.07955 | 15175 ft | 351 kts | 46° |
| 2026-05-04 18:54 | 46.09621 | 6.10409 | 15017 ft | 350 kts | 46° |
| 2026-05-04 18:55 | 46.11336 | 6.12915 | 14599 ft | 351 kts | 46° |
| 2026-05-04 18:55 | 46.14716 | 6.17933 | 13811 ft | 347 kts | 46° |
| 2026-05-04 18:55 | 46.16389 | 6.20428 | 13391 ft | 344 kts | 46° |
| 2026-05-04 18:56 | 46.18047 | 6.22899 | 13002 ft | 341 kts | 46° |
| 2026-05-04 18:56 | 46.19692 | 6.25346 | 12629 ft | 338 kts | 46° |
| 2026-05-04 18:56 | 46.21328 | 6.27769 | 12250 ft | 335 kts | 45° |
| 2026-05-04 18:56 | 46.22952 | 6.30153 | 11873 ft | 332 kts | 45° |
| 2026-05-04 18:57 | 46.24552 | 6.32485 | 11506 ft | 329 kts | 45° |
| 2026-05-04 18:57 | 46.26157 | 6.34824 | 11135 ft | 327 kts | 45° |
| 2026-05-04 18:57 | 46.27754 | 6.37160 | 10758 ft | 325 kts | 45° |
| 2026-05-04 18:57 | 46.29334 | 6.39483 | 10390 ft | 323 kts | 45° |
| 2026-05-04 18:58 | 46.30900 | 6.41794 | 10142 ft | 316 kts | 46° |
| 2026-05-04 18:58 | 46.32417 | 6.44041 | 9917 ft | 309 kts | 46° |
| 2026-05-04 18:58 | 46.33913 | 6.46262 | 9540 ft | 309 kts | 47° |
| 2026-05-04 18:58 | 46.35393 | 6.48456 | 9301 ft | 296 kts | 46° |
| 2026-05-04 18:59 | 46.36330 | 6.49842 | 9209 ft | 282 kts | 47° |
| 2026-05-04 18:59 | 46.38097 | 6.52468 | 8683 ft | 270 kts | 47° |
| 2026-05-04 18:59 | 46.39385 | 6.54396 | 8353 ft | 260 kts | 47° |
| 2026-05-04 18:59 | 46.40664 | 6.56304 | 8241 ft | 275 kts | 44° |
| 2026-05-04 19:00 | 46.41695 | 6.57381 | 8152 ft | 274 kts | 25° |
| 2026-05-04 19:00 | 46.43496 | 6.57971 | 8023 ft | 262 kts | 355° |
| 2026-05-04 19:00 | 46.45210 | 6.57282 | 7774 ft | 254 kts | 328° |
| 2026-05-04 19:00 | 46.46606 | 6.55747 | 7524 ft | 250 kts | 310° |
| 2026-05-04 19:01 | 46.47585 | 6.53714 | 7281 ft | 243 kts | 292° |
| 2026-05-04 19:01 | 46.48079 | 6.51427 | 7070 ft | 233 kts | 275° |
| 2026-05-04 19:01 | 46.48002 | 6.48394 | 7011 ft | 226 kts | 253° |
| 2026-05-04 19:01 | 46.47678 | 6.46961 | 7010 ft | 225 kts | 243° |
| 2026-05-04 19:02 | 46.46872 | 6.45037 | 7011 ft | 223 kts | 228° |
| 2026-05-04 19:02 | 46.45816 | 6.43429 | 7024 ft | 215 kts | 224° |
| 2026-05-04 19:02 | 46.44800 | 6.41918 | 6877 ft | 206 kts | 224° |
| 2026-05-04 19:02 | 46.43802 | 6.40434 | 6648 ft | 203 kts | 223° |
| 2026-05-04 19:03 | 46.42816 | 6.38970 | 6393 ft | 201 kts | 224° |
| 2026-05-04 19:03 | 46.41842 | 6.37524 | 6122 ft | 200 kts | 223° |
| 2026-05-04 19:03 | 46.40875 | 6.36091 | 5852 ft | 198 kts | 223° |
| 2026-05-04 19:03 | 46.39917 | 6.34670 | 5580 ft | 196 kts | 223° |
| 2026-05-04 19:04 | 46.38977 | 6.33278 | 5331 ft | 193 kts | 223° |
| 2026-05-04 19:04 | 46.38059 | 6.31916 | 5078 ft | 186 kts | 223° |
| 2026-05-04 19:04 | 46.37170 | 6.30600 | 4826 ft | 179 kts | 223° |
| 2026-05-04 19:04 | 46.36308 | 6.29326 | 4591 ft | 178 kts | 223° |
| 2026-05-04 19:05 | 46.35437 | 6.28039 | 4335 ft | 180 kts | 223° |
| 2026-05-04 19:05 | 46.34557 | 6.26739 | 4101 ft | 181 kts | 224° |
| 2026-05-04 19:05 | 46.33684 | 6.25448 | 3872 ft | 175 kts | 224° |
| 2026-05-04 19:05 | 46.32885 | 6.24267 | 3640 ft | 154 kts | 224° |
| 2026-05-04 19:06 | 46.32167 | 6.23207 | 3443 ft | 143 kts | 224° |
| 2026-05-04 19:06 | 46.31479 | 6.22192 | 3259 ft | 140 kts | 224° |
| 2026-05-04 19:06 | 46.30801 | 6.21192 | 3073 ft | 139 kts | 224° |
| 2026-05-04 19:06 | 46.30124 | 6.20195 | 2873 ft | 139 kts | 225° |
| 2026-05-04 19:07 | 46.29450 | 6.19201 | 2673 ft | 138 kts | 225° |
| 2026-05-04 19:07 | 46.28777 | 6.18210 | 2474 ft | 138 kts | 225° |
| 2026-05-04 19:07 | 46.28121 | 6.17244 | 2275 ft | 136 kts | 226° |
| 2026-05-04 19:07 | 46.27460 | 6.16270 | 2083 ft | 135 kts | 226° |
| 2026-05-04 19:08 | 46.26798 | 6.15297 | 1899 ft | 135 kts | 227° |
| 2026-05-04 19:08 | 46.26143 | 6.14330 | 1733 ft | 135 kts | 226° |
| 2026-05-04 19:08 | 46.25485 | 6.13367 | 1549 ft | 134 kts | 226° |
| 2026-05-04 19:08 | 46.24830 | 6.12408 | 1375 ft | 132 kts | 226° |
| 2026-05-04 19:09 | 46.24305 | 6.11629 | 1373 ft | 83 kts | 225° |
| 2026-05-04 19:09 | 46.24001 | 6.11181 | 1377 ft | 51 kts | 226° |
| 2026-05-04 19:09 | 46.23810 | 6.10901 | 1379 ft | 32 kts | 224° |
| 2026-05-04 19:09 | 46.23666 | 6.10762 | 1380 ft | 24 kts | 201° |
| 2026-05-04 19:10 | 46.23555 | 6.10712 | 1385 ft | 8 kts | 195° |
| 2026-05-04 19:10 | 46.23531 | 6.10703 | 1386 ft | 0 kts | 195° |
| 2026-05-04 19:10 | 46.23511 | 6.10695 | 1386 ft | 7 kts | 195° |
| 2026-05-04 19:10 | 46.23479 | 6.10682 | 1388 ft | 2 kts | 195° |
| 2026-05-04 19:11 | 46.23436 | 6.10665 | 1391 ft | 11 kts | 197° |
| 2026-05-04 19:11 | 46.23382 | 6.10618 | 1400 ft | 8 kts | 225° |
| 2026-05-04 19:11 | 46.23328 | 6.10538 | 1398 ft | 15 kts | 225° |
| 2026-05-04 19:11 | 46.23252 | 6.10427 | 1396 ft | 16 kts | 225° |
| 2026-05-04 19:12 | 46.23175 | 6.10313 | 1393 ft | 16 kts | 225° |
| 2026-05-04 19:12 | 46.23123 | 6.10265 | 1399 ft | 3 kts | 178° |
| 2026-05-04 19:12 | 46.23104 | 6.10265 | 1399 ft | 3 kts | 180° |
| 2026-05-04 19:13 | 46.23087 | 6.10265 | 1396 ft | 2 kts | 180° |
| 2026-05-04 19:13 | 46.23074 | 6.10265 | 1393 ft | 2 kts | 180° |
| 2026-05-04 19:13 | 46.23064 | 6.10265 | 1395 ft | 1 kts | 180° |
| 2026-05-04 19:13 | 46.23057 | 6.10265 | 1397 ft | 1 kts | 180° |
| 2026-05-04 19:14 | 46.23049 | 6.10265 | 1393 ft | 1 kts | 182° |
| 2026-05-04 19:14 | 46.23048 | 6.10265 | 1393 ft | 0 kts | 182° |